TAF and METAR

METAR for Zahedan Airport

OIZH 292100Z 31004KT CAVOK 25/01 Q1013 A2994
Report created 29. mai 23:00
wind 4 knots from NW (310°) Clear sky Temperature 25° with dewpoint at 1° (Humidity 20.78%) Pressure 1013 hPa

TAF for Zahedan Airport

TAF OIZH 291750Z 2918/3024 01008KT CAVOK TEMPO 3009/3016 01018KT
Report created 29. mai 19:50

between 29. mai 20:00 - 30. mai 02:00

wind 8 knots from N (010°) Clear sky

temporarily between 30. mai 11:00 - 30. mai 18:00

wind 18 knots from N (010°)